sensor_id;sensor_type;location;lat;lon;timestamp;P1;durP1;ratioP1;P2;durP2;ratioP2
19137;SDS011;68178;52.188;5.598;2023-02-28T00:00:32;7.05;;;3.30;;
19137;SDS011;68178;52.188;5.598;2023-02-28T00:02:58;5.53;;;3.08;;
19137;SDS011;68178;52.188;5.598;2023-02-28T00:05:25;5.78;;;2.63;;
19137;SDS011;68178;52.188;5.598;2023-02-28T00:07:51;4.28;;;2.70;;
19137;SDS011;68178;52.188;5.598;2023-02-28T00:10:25;4.43;;;2.65;;
19137;SDS011;68178;52.188;5.598;2023-02-28T00:12:52;6.45;;;2.70;;
19137;SDS011;68178;52.188;5.598;2023-02-28T00:15:18;4.75;;;2.78;;
19137;SDS011;68178;52.188;5.598;2023-02-28T00:17:44;4.90;;;2.28;;
19137;SDS011;68178;52.188;5.598;2023-02-28T00:20:11;6.28;;;2.92;;
19137;SDS011;68178;52.188;5.598;2023-02-28T00:22:38;3.95;;;2.80;;
19137;SDS011;68178;52.188;5.598;2023-02-28T00:25:04;2.35;;;2.13;;
19137;SDS011;68178;52.188;5.598;2023-02-28T00:27:32;3.30;;;2.72;;
19137;SDS011;68178;52.188;5.598;2023-02-28T00:29:58;6.47;;;2.75;;
19137;SDS011;68178;52.188;5.598;2023-02-28T00:32:24;3.97;;;2.97;;
19137;SDS011;68178;52.188;5.598;2023-02-28T00:34:50;4.32;;;2.70;;
19137;SDS011;68178;52.188;5.598;2023-02-28T00:37:16;4.93;;;2.50;;
19137;SDS011;68178;52.188;5.598;2023-02-28T00:39:42;3.05;;;2.10;;
19137;SDS011;68178;52.188;5.598;2023-02-28T00:42:08;6.68;;;2.70;;
19137;SDS011;68178;52.188;5.598;2023-02-28T00:44:34;7.88;;;3.13;;
19137;SDS011;68178;52.188;5.598;2023-02-28T00:47:00;3.58;;;2.55;;
19137;SDS011;68178;52.188;5.598;2023-02-28T00:49:26;8.10;;;3.03;;
19137;SDS011;68178;52.188;5.598;2023-02-28T00:51:53;4.78;;;2.40;;
19137;SDS011;68178;52.188;5.598;2023-02-28T00:54:19;3.70;;;2.25;;
19137;SDS011;68178;52.188;5.598;2023-02-28T00:56:45;6.85;;;2.75;;
19137;SDS011;68178;52.188;5.598;2023-02-28T00:59:12;4.68;;;2.85;;
19137;SDS011;68178;52.188;5.598;2023-02-28T01:01:38;3.72;;;2.55;;
19137;SDS011;68178;52.188;5.598;2023-02-28T01:04:04;8.52;;;2.75;;
19137;SDS011;68178;52.188;5.598;2023-02-28T01:06:30;5.00;;;2.30;;
19137;SDS011;68178;52.188;5.598;2023-02-28T01:08:56;5.15;;;2.88;;
19137;SDS011;68178;52.188;5.598;2023-02-28T01:11:22;4.78;;;2.60;;
19137;SDS011;68178;52.188;5.598;2023-02-28T01:13:48;6.03;;;2.95;;
19137;SDS011;68178;52.188;5.598;2023-02-28T01:16:15;6.45;;;2.70;;
19137;SDS011;68178;52.188;5.598;2023-02-28T01:18:41;4.88;;;2.70;;
19137;SDS011;68178;52.188;5.598;2023-02-28T01:21:11;3.72;;;2.95;;
19137;SDS011;68178;52.188;5.598;2023-02-28T01:23:37;6.93;;;2.60;;
19137;SDS011;68178;52.188;5.598;2023-02-28T01:26:07;4.47;;;2.50;;
19137;SDS011;68178;52.188;5.598;2023-02-28T01:28:33;3.58;;;2.45;;
19137;SDS011;68178;52.188;5.598;2023-02-28T01:31:00;6.35;;;2.78;;
19137;SDS011;68178;52.188;5.598;2023-02-28T01:33:26;3.22;;;2.50;;
19137;SDS011;68178;52.188;5.598;2023-02-28T01:35:58;6.85;;;3.40;;
19137;SDS011;68178;52.188;5.598;2023-02-28T01:38:25;5.07;;;3.13;;
19137;SDS011;68178;52.188;5.598;2023-02-28T01:40:51;4.18;;;3.20;;
19137;SDS011;68178;52.188;5.598;2023-02-28T01:46:10;4.32;;;3.40;;
19137;SDS011;68178;52.188;5.598;2023-02-28T01:48:37;5.45;;;2.72;;
19137;SDS011;68178;52.188;5.598;2023-02-28T01:51:05;7.22;;;3.75;;
19137;SDS011;68178;52.188;5.598;2023-02-28T01:53:35;3.20;;;2.60;;
19137;SDS011;68178;52.188;5.598;2023-02-28T01:56:03;6.43;;;3.15;;
19137;SDS011;68178;52.188;5.598;2023-02-28T01:58:30;5.20;;;2.83;;
19137;SDS011;68178;52.188;5.598;2023-02-28T02:00:56;6.13;;;3.28;;
19137;SDS011;68178;52.188;5.598;2023-02-28T02:03:22;7.00;;;2.63;;
19137;SDS011;68178;52.188;5.598;2023-02-28T02:05:49;3.92;;;2.80;;
19137;SDS011;68178;52.188;5.598;2023-02-28T02:08:17;5.65;;;2.83;;
19137;SDS011;68178;52.188;5.598;2023-02-28T02:10:44;3.42;;;2.72;;
19137;SDS011;68178;52.188;5.598;2023-02-28T02:15:56;5.40;;;2.92;;
19137;SDS011;68178;52.188;5.598;2023-02-28T02:18:33;4.63;;;2.78;;
19137;SDS011;68178;52.188;5.598;2023-02-28T02:34:42;8.55;;;3.33;;
19137;SDS011;68178;52.188;5.598;2023-02-28T02:42:48;6.57;;;3.05;;
19137;SDS011;68178;52.188;5.598;2023-02-28T02:45:21;4.15;;;2.80;;
19137;SDS011;68178;52.188;5.598;2023-02-28T02:47:49;8.45;;;3.03;;
19137;SDS011;68178;52.188;5.598;2023-02-28T02:50:17;5.90;;;2.58;;
19137;SDS011;68178;52.188;5.598;2023-02-28T02:52:53;3.70;;;2.92;;
19137;SDS011;68178;52.188;5.598;2023-02-28T02:55:20;6.13;;;3.22;;
19137;SDS011;68178;52.188;5.598;2023-02-28T02:57:54;6.82;;;3.47;;
19137;SDS011;68178;52.188;5.598;2023-02-28T03:00:26;4.88;;;3.17;;
19137;SDS011;68178;52.188;5.598;2023-02-28T03:02:52;4.97;;;3.45;;
19137;SDS011;68178;52.188;5.598;2023-02-28T03:05:21;7.55;;;3.38;;
19137;SDS011;68178;52.188;5.598;2023-02-28T03:07:49;6.63;;;3.25;;
19137;SDS011;68178;52.188;5.598;2023-02-28T03:12:57;3.30;;;3.00;;
19137;SDS011;68178;52.188;5.598;2023-02-28T03:15:26;6.15;;;3.40;;
19137;SDS011;68178;52.188;5.598;2023-02-28T03:23:19;5.47;;;3.80;;
19137;SDS011;68178;52.188;5.598;2023-02-28T03:25:52;6.72;;;3.50;;
19137;SDS011;68178;52.188;5.598;2023-02-28T03:30:54;9.55;;;3.25;;
19137;SDS011;68178;52.188;5.598;2023-02-28T03:33:25;5.82;;;3.90;;
19137;SDS011;68178;52.188;5.598;2023-02-28T03:35:53;5.78;;;3.80;;
19137;SDS011;68178;52.188;5.598;2023-02-28T03:38:37;5.85;;;4.25;;
19137;SDS011;68178;52.188;5.598;2023-02-28T03:43:33;5.25;;;3.65;;
19137;SDS011;68178;52.188;5.598;2023-02-28T03:46:00;6.35;;;3.78;;
19137;SDS011;68178;52.188;5.598;2023-02-28T03:48:31;4.40;;;3.22;;
19137;SDS011;68178;52.188;5.598;2023-02-28T03:50:58;5.35;;;3.22;;
19137;SDS011;68178;52.188;5.598;2023-02-28T03:56:11;10.05;;;4.30;;
19137;SDS011;68178;52.188;5.598;2023-02-28T03:59:21;5.63;;;3.72;;
19137;SDS011;68178;52.188;5.598;2023-02-28T04:01:30;5.75;;;3.33;;
19137;SDS011;68178;52.188;5.598;2023-02-28T04:03:58;7.80;;;3.97;;
19137;SDS011;68178;52.188;5.598;2023-02-28T04:06:24;5.32;;;4.13;;
19137;SDS011;68178;52.188;5.598;2023-02-28T04:08:50;7.22;;;3.50;;
19137;SDS011;68178;52.188;5.598;2023-02-28T04:14:01;9.35;;;3.50;;
19137;SDS011;68178;52.188;5.598;2023-02-28T04:16:28;7.35;;;3.33;;
19137;SDS011;68178;52.188;5.598;2023-02-28T04:18:54;6.05;;;3.20;;
19137;SDS011;68178;52.188;5.598;2023-02-28T04:21:26;6.35;;;3.20;;
19137;SDS011;68178;52.188;5.598;2023-02-28T04:23:53;4.82;;;3.33;;
19137;SDS011;68178;52.188;5.598;2023-02-28T04:26:19;3.65;;;2.80;;
19137;SDS011;68178;52.188;5.598;2023-02-28T04:28:45;4.38;;;2.90;;
19137;SDS011;68178;52.188;5.598;2023-02-28T04:31:10;5.93;;;3.03;;
19137;SDS011;68178;52.188;5.598;2023-02-28T04:33:36;3.67;;;2.60;;
19137;SDS011;68178;52.188;5.598;2023-02-28T04:36:06;4.70;;;2.70;;
19137;SDS011;68178;52.188;5.598;2023-02-28T04:38:34;3.92;;;2.75;;
19137;SDS011;68178;52.188;5.598;2023-02-28T04:41:00;4.88;;;2.58;;
19137;SDS011;68178;52.188;5.598;2023-02-28T04:43:27;5.40;;;2.80;;
19137;SDS011;68178;52.188;5.598;2023-02-28T04:45:55;4.20;;;2.10;;
19137;SDS011;68178;52.188;5.598;2023-02-28T04:48:25;4.70;;;2.25;;
19137;SDS011;68178;52.188;5.598;2023-02-28T04:50:52;3.63;;;2.45;;
19137;SDS011;68178;52.188;5.598;2023-02-28T04:53:21;4.05;;;2.08;;
19137;SDS011;68178;52.188;5.598;2023-02-28T04:55:47;3.40;;;1.90;;
19137;SDS011;68178;52.188;5.598;2023-02-28T04:58:13;2.28;;;2.08;;
19137;SDS011;68178;52.188;5.598;2023-02-28T05:00:39;3.50;;;1.98;;
19137;SDS011;68178;52.188;5.598;2023-02-28T05:03:05;2.83;;;2.10;;
19137;SDS011;68178;52.188;5.598;2023-02-28T05:05:31;3.08;;;2.30;;
19137;SDS011;68178;52.188;5.598;2023-02-28T05:07:57;3.78;;;2.15;;
19137;SDS011;68178;52.188;5.598;2023-02-28T05:10:23;3.05;;;2.58;;
19137;SDS011;68178;52.188;5.598;2023-02-28T05:12:49;3.22;;;2.05;;
19137;SDS011;68178;52.188;5.598;2023-02-28T05:15:16;3.50;;;2.28;;
19137;SDS011;68178;52.188;5.598;2023-02-28T05:17:42;3.60;;;2.50;;
19137;SDS011;68178;52.188;5.598;2023-02-28T05:20:08;5.25;;;2.83;;
19137;SDS011;68178;52.188;5.598;2023-02-28T05:22:38;3.28;;;2.25;;
19137;SDS011;68178;52.188;5.598;2023-02-28T05:25:04;2.60;;;2.28;;
19137;SDS011;68178;52.188;5.598;2023-02-28T05:27:33;5.35;;;2.38;;
19137;SDS011;68178;52.188;5.598;2023-02-28T05:29:59;2.50;;;2.30;;
19137;SDS011;68178;52.188;5.598;2023-02-28T05:32:28;3.13;;;2.65;;
19137;SDS011;68178;52.188;5.598;2023-02-28T05:34:54;3.60;;;2.53;;
19137;SDS011;68178;52.188;5.598;2023-02-28T05:37:20;3.97;;;3.05;;
19137;SDS011;68178;52.188;5.598;2023-02-28T05:39:46;2.83;;;2.50;;
19137;SDS011;68178;52.188;5.598;2023-02-28T05:42:12;3.63;;;2.55;;
19137;SDS011;68178;52.188;5.598;2023-02-28T05:44:38;3.83;;;2.60;;
19137;SDS011;68178;52.188;5.598;2023-02-28T05:47:04;3.53;;;2.50;;
19137;SDS011;68178;52.188;5.598;2023-02-28T05:49:29;4.68;;;2.67;;
19137;SDS011;68178;52.188;5.598;2023-02-28T05:51:55;4.63;;;3.08;;
19137;SDS011;68178;52.188;5.598;2023-02-28T05:54:21;5.43;;;2.92;;
19137;SDS011;68178;52.188;5.598;2023-02-28T05:56:47;5.03;;;2.60;;
19137;SDS011;68178;52.188;5.598;2023-02-28T05:59:13;5.53;;;3.22;;
19137;SDS011;68178;52.188;5.598;2023-02-28T06:01:43;4.90;;;2.92;;
19137;SDS011;68178;52.188;5.598;2023-02-28T06:04:13;4.63;;;3.10;;
19137;SDS011;68178;52.188;5.598;2023-02-28T06:06:44;3.40;;;3.10;;
19137;SDS011;68178;52.188;5.598;2023-02-28T06:09:10;4.65;;;3.22;;
19137;SDS011;68178;52.188;5.598;2023-02-28T06:11:36;3.92;;;3.38;;
19137;SDS011;68178;52.188;5.598;2023-02-28T06:14:03;4.13;;;3.65;;
19137;SDS011;68178;52.188;5.598;2023-02-28T06:16:29;3.20;;;2.92;;
19137;SDS011;68178;52.188;5.598;2023-02-28T06:19:00;3.85;;;3.50;;
19137;SDS011;68178;52.188;5.598;2023-02-28T06:21:26;5.85;;;4.22;;
19137;SDS011;68178;52.188;5.598;2023-02-28T06:23:52;4.63;;;3.75;;
19137;SDS011;68178;52.188;5.598;2023-02-28T06:26:19;7.88;;;3.60;;
19137;SDS011;68178;52.188;5.598;2023-02-28T06:28:45;5.15;;;3.97;;
19137;SDS011;68178;52.188;5.598;2023-02-28T06:31:12;3.70;;;3.40;;
19137;SDS011;68178;52.188;5.598;2023-02-28T06:33:38;5.90;;;3.70;;
19137;SDS011;68178;52.188;5.598;2023-02-28T06:36:05;5.72;;;4.38;;
19137;SDS011;68178;52.188;5.598;2023-02-28T06:38:31;6.38;;;5.00;;
19137;SDS011;68178;52.188;5.598;2023-02-28T06:40:58;6.68;;;3.97;;
19137;SDS011;68178;52.188;5.598;2023-02-28T06:43:24;4.75;;;3.45;;
19137;SDS011;68178;52.188;5.598;2023-02-28T06:45:53;4.22;;;3.78;;
19137;SDS011;68178;52.188;5.598;2023-02-28T06:48:19;4.53;;;3.55;;
19137;SDS011;68178;52.188;5.598;2023-02-28T06:50:45;3.75;;;3.45;;
19137;SDS011;68178;52.188;5.598;2023-02-28T06:53:11;4.43;;;4.03;;
19137;SDS011;68178;52.188;5.598;2023-02-28T06:55:38;5.13;;;3.65;;
19137;SDS011;68178;52.188;5.598;2023-02-28T06:58:05;5.35;;;3.75;;
19137;SDS011;68178;52.188;5.598;2023-02-28T07:00:42;4.85;;;3.35;;
19137;SDS011;68178;52.188;5.598;2023-02-28T07:03:09;7.93;;;3.60;;
19137;SDS011;68178;52.188;5.598;2023-02-28T07:05:36;3.53;;;3.20;;
19137;SDS011;68178;52.188;5.598;2023-02-28T07:08:02;7.15;;;4.38;;
19137;SDS011;68178;52.188;5.598;2023-02-28T07:10:29;5.13;;;3.30;;
19137;SDS011;68178;52.188;5.598;2023-02-28T07:12:55;5.15;;;3.55;;
19137;SDS011;68178;52.188;5.598;2023-02-28T07:15:20;4.30;;;3.83;;
19137;SDS011;68178;52.188;5.598;2023-02-28T07:17:46;6.43;;;4.60;;
19137;SDS011;68178;52.188;5.598;2023-02-28T07:20:12;5.78;;;4.88;;
19137;SDS011;68178;52.188;5.598;2023-02-28T07:22:38;5.13;;;4.25;;
19137;SDS011;68178;52.188;5.598;2023-02-28T07:25:05;7.82;;;4.47;;
19137;SDS011;68178;52.188;5.598;2023-02-28T07:27:31;4.38;;;4.05;;
19137;SDS011;68178;52.188;5.598;2023-02-28T07:29:57;5.72;;;4.30;;
19137;SDS011;68178;52.188;5.598;2023-02-28T07:32:26;7.60;;;4.95;;
19137;SDS011;68178;52.188;5.598;2023-02-28T07:34:52;6.82;;;4.97;;
19137;SDS011;68178;52.188;5.598;2023-02-28T07:37:18;7.82;;;5.47;;
19137;SDS011;68178;52.188;5.598;2023-02-28T07:39:44;5.88;;;5.35;;
19137;SDS011;68178;52.188;5.598;2023-02-28T07:42:10;7.30;;;5.60;;
19137;SDS011;68178;52.188;5.598;2023-02-28T07:44:38;5.78;;;5.13;;
19137;SDS011;68178;52.188;5.598;2023-02-28T07:47:06;9.13;;;5.57;;
19137;SDS011;68178;52.188;5.598;2023-02-28T07:49:32;6.53;;;5.45;;
19137;SDS011;68178;52.188;5.598;2023-02-28T07:51:58;6.20;;;5.60;;
19137;SDS011;68178;52.188;5.598;2023-02-28T07:54:27;7.20;;;5.65;;
19137;SDS011;68178;52.188;5.598;2023-02-28T07:56:57;5.75;;;4.88;;
19137;SDS011;68178;52.188;5.598;2023-02-28T07:59:23;6.05;;;5.20;;
19137;SDS011;68178;52.188;5.598;2023-02-28T08:01:49;8.15;;;4.90;;
19137;SDS011;68178;52.188;5.598;2023-02-28T08:04:18;6.43;;;5.00;;
19137;SDS011;68178;52.188;5.598;2023-02-28T08:06:44;6.60;;;4.97;;
19137;SDS011;68178;52.188;5.598;2023-02-28T08:09:10;8.50;;;5.65;;
19137;SDS011;68178;52.188;5.598;2023-02-28T08:11:36;5.28;;;4.78;;
19137;SDS011;68178;52.188;5.598;2023-02-28T08:14:02;5.47;;;4.00;;
19137;SDS011;68178;52.188;5.598;2023-02-28T08:16:28;7.78;;;4.30;;
19137;SDS011;68178;52.188;5.598;2023-02-28T08:18:54;5.10;;;3.85;;
19137;SDS011;68178;52.188;5.598;2023-02-28T08:21:20;4.53;;;4.13;;
19137;SDS011;68178;52.188;5.598;2023-02-28T08:23:47;5.07;;;3.63;;
19137;SDS011;68178;52.188;5.598;2023-02-28T08:26:13;4.38;;;3.08;;
19137;SDS011;68178;52.188;5.598;2023-02-28T08:28:40;5.18;;;3.53;;
19137;SDS011;68178;52.188;5.598;2023-02-28T08:31:10;4.45;;;2.95;;
19137;SDS011;68178;52.188;5.598;2023-02-28T08:33:36;5.45;;;3.05;;
19137;SDS011;68178;52.188;5.598;2023-02-28T08:36:04;4.80;;;2.50;;
19137;SDS011;68178;52.188;5.598;2023-02-28T08:38:30;3.55;;;2.75;;
19137;SDS011;68178;52.188;5.598;2023-02-28T08:40:59;2.88;;;2.47;;
19137;SDS011;68178;52.188;5.598;2023-02-28T08:43:26;6.03;;;3.38;;
19137;SDS011;68178;52.188;5.598;2023-02-28T08:45:52;3.65;;;2.88;;
19137;SDS011;68178;52.188;5.598;2023-02-28T08:48:18;5.75;;;2.38;;
19137;SDS011;68178;52.188;5.598;2023-02-28T08:50:45;6.78;;;2.88;;
19137;SDS011;68178;52.188;5.598;2023-02-28T08:53:11;4.72;;;2.45;;
19137;SDS011;68178;52.188;5.598;2023-02-28T08:55:36;4.32;;;2.15;;
19137;SDS011;68178;52.188;5.598;2023-02-28T08:58:02;3.42;;;2.40;;
19137;SDS011;68178;52.188;5.598;2023-02-28T09:00:28;5.20;;;2.08;;
19137;SDS011;68178;52.188;5.598;2023-02-28T09:02:57;3.38;;;2.00;;
19137;SDS011;68178;52.188;5.598;2023-02-28T09:05:23;2.33;;;1.95;;
19137;SDS011;68178;52.188;5.598;2023-02-28T09:07:49;3.17;;;2.20;;
19137;SDS011;68178;52.188;5.598;2023-02-28T09:10:15;2.17;;;1.60;;
19137;SDS011;68178;52.188;5.598;2023-02-28T09:12:41;2.42;;;1.50;;
19137;SDS011;68178;52.188;5.598;2023-02-28T09:15:07;1.88;;;1.25;;
19137;SDS011;68178;52.188;5.598;2023-02-28T09:17:33;2.55;;;1.10;;
19137;SDS011;68178;52.188;5.598;2023-02-28T09:19:59;1.38;;;1.20;;
19137;SDS011;68178;52.188;5.598;2023-02-28T09:22:25;2.33;;;1.30;;
19137;SDS011;68178;52.188;5.598;2023-02-28T09:24:51;1.55;;;1.00;;
19137;SDS011;68178;52.188;5.598;2023-02-28T09:27:17;1.20;;;0.93;;
19137;SDS011;68178;52.188;5.598;2023-02-28T09:29:43;1.95;;;1.05;;
19137;SDS011;68178;52.188;5.598;2023-02-28T09:32:09;2.25;;;0.90;;
19137;SDS011;68178;52.188;5.598;2023-02-28T09:34:35;2.80;;;0.90;;
19137;SDS011;68178;52.188;5.598;2023-02-28T09:37:01;1.30;;;1.13;;
19137;SDS011;68178;52.188;5.598;2023-02-28T09:39:27;1.98;;;0.90;;
19137;SDS011;68178;52.188;5.598;2023-02-28T09:41:54;1.45;;;0.82;;
19137;SDS011;68178;52.188;5.598;2023-02-28T09:44:40;0.98;;;0.77;;
19137;SDS011;68178;52.188;5.598;2023-02-28T09:49:46;1.10;;;1.00;;
19137;SDS011;68178;52.188;5.598;2023-02-28T09:52:15;1.63;;;1.52;;
19137;SDS011;68178;52.188;5.598;2023-02-28T09:54:42;2.20;;;1.20;;
19137;SDS011;68178;52.188;5.598;2023-02-28T10:02:17;1.60;;;1.40;;
19137;SDS011;68178;52.188;5.598;2023-02-28T10:09:57;1.30;;;1.15;;
19137;SDS011;68178;52.188;5.598;2023-02-28T10:12:25;2.60;;;1.67;;
19137;SDS011;68178;52.188;5.598;2023-02-28T10:14:53;1.88;;;1.20;;
19137;SDS011;68178;52.188;5.598;2023-02-28T10:17:21;2.70;;;1.65;;
19137;SDS011;68178;52.188;5.598;2023-02-28T10:19:56;1.67;;;1.58;;
19137;SDS011;68178;52.188;5.598;2023-02-28T10:22:32;2.25;;;1.90;;
19137;SDS011;68178;52.188;5.598;2023-02-28T10:24:59;1.50;;;1.10;;
19137;SDS011;68178;52.188;5.598;2023-02-28T10:27:31;1.50;;;1.05;;
19137;SDS011;68178;52.188;5.598;2023-02-28T10:29:58;1.55;;;1.13;;
19137;SDS011;68178;52.188;5.598;2023-02-28T10:37:41;1.23;;;1.13;;
19137;SDS011;68178;52.188;5.598;2023-02-28T10:45:20;2.55;;;1.20;;
19137;SDS011;68178;52.188;5.598;2023-02-28T10:52:55;1.67;;;1.13;;
19137;SDS011;68178;52.188;5.598;2023-02-28T10:55:33;1.15;;;1.05;;
19137;SDS011;68178;52.188;5.598;2023-02-28T10:57:59;2.45;;;1.50;;
19137;SDS011;68178;52.188;5.598;2023-02-28T11:00:25;1.40;;;1.20;;
19137;SDS011;68178;52.188;5.598;2023-02-28T11:02:58;1.40;;;1.23;;
19137;SDS011;68178;52.188;5.598;2023-02-28T11:05:28;1.10;;;1.00;;
19137;SDS011;68178;52.188;5.598;2023-02-28T11:07:55;2.15;;;1.27;;
19137;SDS011;68178;52.188;5.598;2023-02-28T11:10:23;1.10;;;1.00;;
19137;SDS011;68178;52.188;5.598;2023-02-28T11:12:53;2.05;;;1.10;;
19137;SDS011;68178;52.188;5.598;2023-02-28T11:17:53;1.33;;;1.20;;
19137;SDS011;68178;52.188;5.598;2023-02-28T11:20:23;2.38;;;1.10;;
19137;SDS011;68178;52.188;5.598;2023-02-28T11:22:49;0.93;;;0.82;;
19137;SDS011;68178;52.188;5.598;2023-02-28T11:25:19;1.40;;;1.30;;
19137;SDS011;68178;52.188;5.598;2023-02-28T11:27:47;2.35;;;1.40;;
19137;SDS011;68178;52.188;5.598;2023-02-28T11:32:55;2.40;;;1.33;;
19137;SDS011;68178;52.188;5.598;2023-02-28T11:35:23;1.30;;;1.20;;
19137;SDS011;68178;52.188;5.598;2023-02-28T11:37:50;1.52;;;1.33;;
19137;SDS011;68178;52.188;5.598;2023-02-28T11:40:18;1.80;;;1.30;;
19137;SDS011;68178;52.188;5.598;2023-02-28T11:55:52;1.50;;;1.40;;
19137;SDS011;68178;52.188;5.598;2023-02-28T12:01:09;3.08;;;1.10;;
19137;SDS011;68178;52.188;5.598;2023-02-28T12:03:56;2.08;;;1.40;;
19137;SDS011;68178;52.188;5.598;2023-02-28T12:09:44;1.00;;;1.00;;
19137;SDS011;68178;52.188;5.598;2023-02-28T12:23:21;1.63;;;1.27;;
19137;SDS011;68178;52.188;5.598;2023-02-28T12:28:09;1.95;;;1.40;;
19137;SDS011;68178;52.188;5.598;2023-02-28T12:30:35;1.67;;;1.58;;
19137;SDS011;68178;52.188;5.598;2023-02-28T12:33:06;1.98;;;1.85;;
19137;SDS011;68178;52.188;5.598;2023-02-28T12:38:18;1.60;;;1.50;;
19137;SDS011;68178;52.188;5.598;2023-02-28T12:41:00;1.88;;;1.50;;
19137;SDS011;68178;52.188;5.598;2023-02-28T12:43:38;1.75;;;1.50;;
19137;SDS011;68178;52.188;5.598;2023-02-28T12:46:07;1.88;;;1.60;;
19137;SDS011;68178;52.188;5.598;2023-02-28T12:51:07;2.22;;;1.73;;
19137;SDS011;68178;52.188;5.598;2023-02-28T12:59:27;1.55;;;1.45;;
19137;SDS011;68178;52.188;5.598;2023-02-28T13:02:09;2.08;;;1.60;;
19137;SDS011;68178;52.188;5.598;2023-02-28T13:12:52;2.58;;;1.60;;
19137;SDS011;68178;52.188;5.598;2023-02-28T13:15:24;2.88;;;2.15;;
19137;SDS011;68178;52.188;5.598;2023-02-28T13:17:53;1.83;;;1.55;;
19137;SDS011;68178;52.188;5.598;2023-02-28T13:20:47;2.10;;;2.00;;
19137;SDS011;68178;52.188;5.598;2023-02-28T13:23:16;2.00;;;1.90;;
19137;SDS011;68178;52.188;5.598;2023-02-28T13:25:52;2.22;;;1.70;;
19137;SDS011;68178;52.188;5.598;2023-02-28T13:28:56;1.90;;;1.63;;
19137;SDS011;68178;52.188;5.598;2023-02-28T13:31:05;1.80;;;1.70;;
19137;SDS011;68178;52.188;5.598;2023-02-28T13:33:32;1.77;;;1.67;;
19137;SDS011;68178;52.188;5.598;2023-02-28T13:38:41;2.60;;;2.40;;
19137;SDS011;68178;52.188;5.598;2023-02-28T13:44:07;1.83;;;1.70;;
19137;SDS011;68178;52.188;5.598;2023-02-28T13:46:34;3.13;;;1.75;;
19137;SDS011;68178;52.188;5.598;2023-02-28T13:52:02;2.15;;;1.60;;
19137;SDS011;68178;52.188;5.598;2023-02-28T14:05:05;1.95;;;1.77;;
19137;SDS011;68178;52.188;5.598;2023-02-28T14:07:33;2.08;;;1.75;;
19137;SDS011;68178;52.188;5.598;2023-02-28T14:10:04;3.25;;;1.48;;
19137;SDS011;68178;52.188;5.598;2023-02-28T14:18:02;1.63;;;1.52;;
19137;SDS011;68178;52.188;5.598;2023-02-28T14:20:31;3.95;;;2.30;;
19137;SDS011;68178;52.188;5.598;2023-02-28T14:23:06;2.92;;;2.03;;
19137;SDS011;68178;52.188;5.598;2023-02-28T14:25:38;1.45;;;1.40;;
19137;SDS011;68178;52.188;5.598;2023-02-28T14:28:13;1.60;;;1.50;;
19137;SDS011;68178;52.188;5.598;2023-02-28T14:30:57;1.88;;;1.77;;
19137;SDS011;68178;52.188;5.598;2023-02-28T14:38:35;2.08;;;1.70;;
19137;SDS011;68178;52.188;5.598;2023-02-28T14:41:03;1.75;;;1.65;;
19137;SDS011;68178;52.188;5.598;2023-02-28T14:43:31;2.42;;;1.50;;
19137;SDS011;68178;52.188;5.598;2023-02-28T14:45:58;2.85;;;1.75;;
19137;SDS011;68178;52.188;5.598;2023-02-28T14:48:25;1.88;;;1.50;;
19137;SDS011;68178;52.188;5.598;2023-02-28T14:50:53;1.50;;;1.35;;
19137;SDS011;68178;52.188;5.598;2023-02-28T14:53:20;1.75;;;1.65;;
19137;SDS011;68178;52.188;5.598;2023-02-28T14:55:47;2.25;;;1.25;;
19137;SDS011;68178;52.188;5.598;2023-02-28T14:58:27;1.92;;;1.60;;
19137;SDS011;68178;52.188;5.598;2023-02-28T15:00:54;2.55;;;1.73;;
19137;SDS011;68178;52.188;5.598;2023-02-28T15:03:22;1.80;;;1.65;;
19137;SDS011;68178;52.188;5.598;2023-02-28T15:08:48;1.75;;;1.65;;
19137;SDS011;68178;52.188;5.598;2023-02-28T15:11:17;1.70;;;1.60;;
19137;SDS011;68178;52.188;5.598;2023-02-28T15:13:51;2.08;;;1.40;;
19137;SDS011;68178;52.188;5.598;2023-02-28T15:21:13;2.88;;;1.50;;
19137;SDS011;68178;52.188;5.598;2023-02-28T15:23:40;1.67;;;1.58;;
19137;SDS011;68178;52.188;5.598;2023-02-28T15:26:10;2.67;;;1.48;;
19137;SDS011;68178;52.188;5.598;2023-02-28T15:28:38;2.22;;;1.50;;
19137;SDS011;68178;52.188;5.598;2023-02-28T15:31:04;2.50;;;1.38;;
19137;SDS011;68178;52.188;5.598;2023-02-28T15:33:51;2.70;;;1.65;;
19137;SDS011;68178;52.188;5.598;2023-02-28T15:36:17;3.75;;;1.60;;
19137;SDS011;68178;52.188;5.598;2023-02-28T15:38:46;3.13;;;1.70;;
19137;SDS011;68178;52.188;5.598;2023-02-28T15:41:25;2.38;;;1.90;;
19137;SDS011;68178;52.188;5.598;2023-02-28T15:46:36;1.80;;;1.67;;
19137;SDS011;68178;52.188;5.598;2023-02-28T15:49:02;5.07;;;2.13;;
19137;SDS011;68178;52.188;5.598;2023-02-28T15:51:30;2.42;;;1.80;;
19137;SDS011;68178;52.188;5.598;2023-02-28T15:53:58;2.10;;;1.90;;
19137;SDS011;68178;52.188;5.598;2023-02-28T15:56:29;2.03;;;1.77;;
19137;SDS011;68178;52.188;5.598;2023-02-28T15:58:56;2.53;;;2.15;;
19137;SDS011;68178;52.188;5.598;2023-02-28T16:01:26;3.05;;;2.22;;
19137;SDS011;68178;52.188;5.598;2023-02-28T16:03:58;2.67;;;1.95;;
19137;SDS011;68178;52.188;5.598;2023-02-28T16:08:53;2.20;;;1.98;;
19137;SDS011;68178;52.188;5.598;2023-02-28T16:11:20;2.53;;;2.05;;
19137;SDS011;68178;52.188;5.598;2023-02-28T16:13:47;3.97;;;2.45;;
19137;SDS011;68178;52.188;5.598;2023-02-28T16:16:21;2.97;;;2.47;;
19137;SDS011;68178;52.188;5.598;2023-02-28T16:18:47;2.65;;;2.25;;
19137;SDS011;68178;52.188;5.598;2023-02-28T16:21:13;2.75;;;2.05;;
19137;SDS011;68178;52.188;5.598;2023-02-28T16:23:39;3.33;;;2.08;;
19137;SDS011;68178;52.188;5.598;2023-02-28T16:26:06;3.50;;;2.13;;
19137;SDS011;68178;52.188;5.598;2023-02-28T16:28:35;2.83;;;1.92;;
19137;SDS011;68178;52.188;5.598;2023-02-28T16:31:01;2.78;;;2.53;;
19137;SDS011;68178;52.188;5.598;2023-02-28T16:33:28;2.40;;;2.20;;
19137;SDS011;68178;52.188;5.598;2023-02-28T16:35:54;2.42;;;2.22;;
19137;SDS011;68178;52.188;5.598;2023-02-28T16:38:23;2.90;;;2.50;;
19137;SDS011;68178;52.188;5.598;2023-02-28T16:40:53;3.47;;;2.17;;
19137;SDS011;68178;52.188;5.598;2023-02-28T16:43:22;2.90;;;2.22;;
19137;SDS011;68178;52.188;5.598;2023-02-28T16:45:49;3.92;;;3.53;;
19137;SDS011;68178;52.188;5.598;2023-02-28T16:48:20;4.63;;;3.00;;
19137;SDS011;68178;52.188;5.598;2023-02-28T16:50:45;3.35;;;3.05;;
19137;SDS011;68178;52.188;5.598;2023-02-28T16:53:11;4.72;;;3.20;;
19137;SDS011;68178;52.188;5.598;2023-02-28T16:55:38;3.05;;;2.60;;
19137;SDS011;68178;52.188;5.598;2023-02-28T16:58:04;2.70;;;2.40;;
19137;SDS011;68178;52.188;5.598;2023-02-28T17:00:31;2.92;;;2.55;;
19137;SDS011;68178;52.188;5.598;2023-02-28T17:02:57;4.40;;;2.40;;
19137;SDS011;68178;52.188;5.598;2023-02-28T17:05:27;3.03;;;2.75;;
19137;SDS011;68178;52.188;5.598;2023-02-28T17:07:56;3.08;;;2.88;;
19137;SDS011;68178;52.188;5.598;2023-02-28T17:10:23;2.92;;;2.70;;
19137;SDS011;68178;52.188;5.598;2023-02-28T17:12:50;3.72;;;3.05;;
19137;SDS011;68178;52.188;5.598;2023-02-28T17:15:17;2.38;;;2.17;;
19137;SDS011;68178;52.188;5.598;2023-02-28T17:17:44;3.10;;;2.80;;
19137;SDS011;68178;52.188;5.598;2023-02-28T17:20:13;4.18;;;3.42;;
19137;SDS011;68178;52.188;5.598;2023-02-28T17:22:40;6.90;;;3.63;;
19137;SDS011;68178;52.188;5.598;2023-02-28T17:25:06;6.00;;;3.80;;
19137;SDS011;68178;52.188;5.598;2023-02-28T17:27:36;4.32;;;3.53;;
19137;SDS011;68178;52.188;5.598;2023-02-28T17:30:13;4.70;;;4.07;;
19137;SDS011;68178;52.188;5.598;2023-02-28T17:32:39;5.43;;;4.65;;
19137;SDS011;68178;52.188;5.598;2023-02-28T17:35:06;6.97;;;6.03;;
19137;SDS011;68178;52.188;5.598;2023-02-28T17:37:32;7.72;;;4.80;;
19137;SDS011;68178;52.188;5.598;2023-02-28T17:39:59;7.82;;;5.05;;
19137;SDS011;68178;52.188;5.598;2023-02-28T17:42:25;8.90;;;5.82;;
19137;SDS011;68178;52.188;5.598;2023-02-28T17:44:51;12.20;;;6.47;;